Time;durP1;ratioP1;P1;durP2;ratioP2;P2;SDS_P1;SDS_P2;PMS_P1;PMS_P2;Temp;Humidity;BMP_temperature;BMP_pressure;BME280_temperature;BME280_humidity;BME280_pressure;Samples;Min_cycle;Max_cycle;Signal;HPM_P1;HPM_P2
2021/12/31 00:02:17;;;;;;;6.15;3.78;;;13.50;99.90;;;;;;5071693;28;20035;-71
2021/12/31 00:04:42;;;;;;;8.63;4.22;;;13.50;99.90;;;;;;5072661;28;20025;-71
2021/12/31 00:07:09;;;;;;;9.80;4.22;;;13.50;99.90;;;;;;5072417;28;20045;-71
2021/12/31 00:09:35;;;;;;;6.38;3.35;;;13.60;99.90;;;;;;5071924;28;20102;-71
2021/12/31 00:12:02;;;;;;;10.95;4.35;;;13.60;99.90;;;;;;5072495;28;20433;-71
2021/12/31 00:14:28;;;;;;;7.55;4.07;;;13.70;99.90;;;;;;5072235;28;20032;-71
2021/12/31 00:16:54;;;;;;;10.55;3.80;;;13.70;99.90;;;;;;5071571;28;20372;-72
2021/12/31 00:19:20;;;;;;;7.78;3.38;;;13.70;99.90;;;;;;5072233;28;20142;-72
2021/12/31 00:21:50;;;;;;;11.43;3.72;;;13.80;99.90;;;;;;5072355;28;20074;-72
2021/12/31 00:24:16;;;;;;;;;;;13.70;99.90;;;;;;5071811;28;20048;-72
2021/12/31 00:26:41;;;;;;;8.25;3.70;;;13.70;99.90;;;;;;5072358;28;19909;-72
2021/12/31 00:29:07;;;;;;;7.68;3.47;;;13.80;99.90;;;;;;5071982;28;20021;-72
2021/12/31 00:31:33;;;;;;;7.63;3.83;;;13.70;99.90;;;;;;5071751;28;20017;-73
2021/12/31 00:33:59;;;;;;;12.88;4.00;;;13.80;99.90;;;;;;5072254;28;20028;-72
2021/12/31 00:36:47;;;;;;;9.82;3.70;;;13.90;99.90;;;;;;5072046;28;20020;-72
2021/12/31 00:39:14;;;;;;;4.95;3.03;;;13.90;99.90;;;;;;5071634;28;20112;-71
2021/12/31 00:41:39;;;;;;;15.20;3.38;;;13.90;99.90;;;;;;5072136;28;20032;-73
2021/12/31 00:44:05;;;;;;;7.97;3.15;;;13.90;99.90;;;;;;5071719;28;20027;-72
2021/12/31 00:46:32;;;;;;;7.90;3.25;;;13.90;99.90;;;;;;5071341;28;20032;-72
2021/12/31 00:48:58;;;;;;;8.05;3.17;;;13.90;99.90;;;;;;5072386;28;20079;-72
2021/12/31 00:51:27;;;;;;;8.88;3.22;;;13.90;99.90;;;;;;5071440;28;20031;-72
2021/12/31 00:53:52;;;;;;;8.50;2.97;;;13.90;99.90;;;;;;5072161;28;20024;-72
2021/12/31 00:56:18;;;;;;;5.43;2.65;;;13.90;99.90;;;;;;5072122;28;20017;-72
2021/12/31 00:58:43;;;;;;;7.28;2.95;;;13.90;99.90;;;;;;5072187;28;20464;-73
2021/12/31 01:01:16;;;;;;;7.25;3.05;;;13.90;99.90;;;;;;5071500;28;20045;-72
2021/12/31 01:03:41;;;;;;;6.57;2.40;;;13.90;99.90;;;;;;5072040;28;20070;-72
2021/12/31 01:06:07;;;;;;;3.22;2.65;;;13.90;99.90;;;;;;5071022;28;20025;-72
2021/12/31 01:08:32;;;;;;;4.45;2.50;;;13.90;99.90;;;;;;5075776;28;20029;-71
2021/12/31 01:10:58;;;;;;;4.97;2.90;;;13.90;99.90;;;;;;5081472;28;20062;-72
2021/12/31 01:13:32;;;;;;;5.30;2.47;;;13.90;99.90;;;;;;5076714;28;20472;-70
2021/12/31 01:16:00;;;;;;;6.75;2.75;;;13.90;99.90;;;;;;5075437;28;20394;-71
2021/12/31 01:19:44;;;;;;;8.30;3.35;;;14.00;99.90;;;;;;5075210;28;20032;-71
2021/12/31 01:21:12;;;;;;;5.35;2.70;;;14.00;99.90;;;;;;5073980;28;20033;-71
2021/12/31 01:23:37;;;;;;;5.40;2.13;;;14.00;99.90;;;;;;5075159;28;20023;-71
2021/12/31 01:26:03;;;;;;;5.50;2.88;;;14.00;99.90;;;;;;5075192;28;20107;-73
2021/12/31 01:28:29;;;;;;;5.03;2.70;;;14.00;99.90;;;;;;5074649;28;20059;-72
2021/12/31 01:30:54;;;;;;;13.15;2.60;;;14.00;99.90;;;;;;5075170;28;20078;-72
2021/12/31 01:33:20;;;;;;;5.68;2.65;;;14.00;99.90;;;;;;5074709;28;20048;-72
2021/12/31 01:35:45;;;;;;;5.65;2.30;;;14.00;99.90;;;;;;5074301;28;20112;-72
2021/12/31 01:38:11;;;;;;;4.53;2.60;;;14.00;99.90;;;;;;5074502;28;20025;-71
2021/12/31 01:40:36;;;;;;;5.10;2.40;;;14.00;99.90;;;;;;5074117;28;20039;-71
2021/12/31 01:43:02;;;;;;;4.10;2.17;;;14.10;99.90;;;;;;5074809;28;20020;-73
2021/12/31 01:45:32;;;;;;;5.00;2.45;;;14.00;99.90;;;;;;5074878;28;20471;-71
2021/12/31 01:48:05;;;;;;;6.60;2.90;;;14.10;99.90;;;;;;5074241;28;20475;-71
2021/12/31 01:50:31;;;;;;;6.65;2.42;;;14.10;99.90;;;;;;5074658;28;20032;-71
2021/12/31 01:52:58;;;;;;;7.57;2.53;;;14.10;99.90;;;;;;5074793;28;20082;-72
2021/12/31 01:55:26;;;;;;;5.38;2.40;;;14.10;99.90;;;;;;5073892;28;20105;-72
2021/12/31 01:57:53;;;;;;;7.32;2.28;;;14.00;99.90;;;;;;5074542;28;20024;-72
2021/12/31 02:00:19;;;;;;;2.63;2.28;;;14.00;99.90;;;;;;5074153;28;20099;-72
2021/12/31 02:02:46;;;;;;;8.55;2.67;;;14.00;99.90;;;;;;5073780;28;20484;-71
2021/12/31 02:05:13;;;;;;;7.68;2.42;;;14.00;99.90;;;;;;5074315;28;20107;-72
2021/12/31 02:07:39;;;;;;;5.80;2.10;;;14.00;99.90;;;;;;5074505;28;20121;-72
2021/12/31 02:10:09;;;;;;;7.95;2.53;;;14.00;99.90;;;;;;5073535;28;20031;-72
2021/12/31 02:12:38;;;;;;;4.40;2.40;;;14.00;99.90;;;;;;5074463;28;20118;-72
2021/12/31 02:15:04;;;;;;;3.13;2.40;;;13.90;99.90;;;;;;5073916;28;20358;-72
2021/12/31 02:17:29;;;;;;;5.20;2.10;;;13.90;99.90;;;;;;5073440;28;20103;-72
2021/12/31 02:20:05;;;;;;;4.10;2.30;;;13.90;99.90;;;;;;5074006;28;20079;-72
2021/12/31 02:22:33;;;;;;;2.88;2.20;;;13.90;99.90;;;;;;5074377;28;20044;-71
2021/12/31 02:25:00;;;;;;;5.82;2.38;;;13.90;99.90;;;;;;5073533;28;20021;-71
2021/12/31 02:27:26;;;;;;;6.47;2.65;;;13.90;99.90;;;;;;5073760;28;20380;-72
2021/12/31 02:29:52;;;;;;;7.07;2.33;;;13.90;99.90;;;;;;5073409;28;20029;-70
2021/12/31 02:32:18;;;;;;;5.43;2.78;;;13.80;99.90;;;;;;5073674;28;20094;-71
2021/12/31 02:34:44;;;;;;;5.95;2.30;;;13.90;99.90;;;;;;5074151;28;20029;-71
2021/12/31 02:37:10;;;;;;;2.67;2.47;;;13.90;99.90;;;;;;5072740;28;20472;-72
2021/12/31 02:39:41;;;;;;;3.95;2.08;;;13.80;99.90;;;;;;5073640;28;20052;-72
2021/12/31 02:42:08;;;;;;;4.30;2.20;;;13.80;99.90;;;;;;5073300;28;20379;-73
2021/12/31 02:44:35;;;;;;;6.43;2.40;;;13.90;99.90;;;;;;5073024;28;20020;-72
2021/12/31 02:47:03;;;;;;;6.75;2.20;;;13.90;99.90;;;;;;5074619;28;20535;-72
2021/12/31 02:49:34;;;;;;;4.72;2.40;;;13.90;99.90;;;;;;5073772;28;20038;-72
2021/12/31 02:52:02;;;;;;;6.50;2.50;;;13.90;99.90;;;;;;5073156;28;20085;-72
2021/12/31 02:54:29;;;;;;;6.90;2.33;;;14.00;99.90;;;;;;5073579;28;20025;-72
2021/12/31 02:56:55;;;;;;;4.10;2.33;;;13.90;99.90;;;;;;5074353;28;20468;-72
2021/12/31 02:59:21;;;;;;;5.82;3.33;;;13.90;99.90;;;;;;5072347;28;20112;-71
2021/12/31 03:01:47;;;;;;;7.35;3.47;;;13.90;99.90;;;;;;5073202;28;20038;-72
2021/12/31 03:04:16;;;;;;;7.15;3.20;;;13.90;99.90;;;;;;5073164;28;20067;-71
2021/12/31 03:06:43;;;;;;;11.07;2.80;;;14.00;99.90;;;;;;5072825;28;20074;-72
2021/12/31 03:09:10;;;;;;;5.72;2.83;;;14.00;99.90;;;;;;5072844;28;20021;-72
2021/12/31 03:11:37;;;;;;;7.93;2.85;;;14.00;99.90;;;;;;5073213;28;20032;-72
2021/12/31 03:14:06;;;;;;;7.45;2.88;;;13.90;99.90;;;;;;5072167;28;20024;-73
2021/12/31 03:16:32;;;;;;;3.78;2.50;;;14.00;99.90;;;;;;5073305;28;20021;-72
2021/12/31 03:18:58;;;;;;;5.15;2.70;;;14.00;99.90;;;;;;5072172;28;20476;-72
2021/12/31 03:21:23;;;;;;;5.60;2.83;;;14.00;99.90;;;;;;5072780;28;20094;-73
2021/12/31 03:23:52;;;;;;;6.95;2.40;;;14.00;99.90;;;;;;5073013;28;20020;-72
2021/12/31 03:26:21;;;;;;;4.53;1.95;;;14.00;99.90;;;;;;5071952;28;20071;-72
2021/12/31 03:28:48;;;;;;;4.55;1.98;;;13.90;99.90;;;;;;5072759;28;20052;-72
2021/12/31 03:31:13;;;;;;;11.07;2.42;;;13.90;99.90;;;;;;5072424;28;20025;-72
2021/12/31 03:33:39;;;;;;;4.55;2.35;;;13.90;99.90;;;;;;5072890;28;20027;-71
2021/12/31 03:36:05;;;;;;;4.75;2.13;;;13.80;99.90;;;;;;5072453;28;20111;-73
2021/12/31 03:38:30;;;;;;;4.03;2.15;;;13.80;99.90;;;;;;5072858;28;20029;-72
2021/12/31 03:40:56;;;;;;;7.18;2.38;;;13.80;99.90;;;;;;5071993;28;20024;-72
2021/12/31 03:43:21;;;;;;;7.97;2.35;;;13.70;99.90;;;;;;5072533;28;20024;-72
2021/12/31 03:45:50;;;;;;;5.97;2.17;;;13.80;99.90;;;;;;5072936;28;20032;-72
2021/12/31 03:48:19;;;;;;;3.22;2.30;;;13.70;99.90;;;;;;5089119;28;20024;-72
2021/12/31 03:50:45;;;;;;;4.35;2.30;;;13.70;99.90;;;;;;5094513;28;20028;-71
2021/12/31 03:53:11;;;;;;;5.82;2.55;;;13.60;99.90;;;;;;5092481;28;20471;-71
2021/12/31 03:55:37;;;;;;;8.30;2.60;;;13.60;99.90;;;;;;5091970;28;20036;-71
2021/12/31 03:58:02;;;;;;;7.53;2.85;;;13.60;99.90;;;;;;5092862;28;20375;-71
2021/12/31 04:00:29;;;;;;;5.50;2.92;;;13.50;99.90;;;;;;5093163;28;20089;-71
2021/12/31 04:02:57;;;;;;;2.95;2.20;;;13.50;99.90;;;;;;5092093;28;20045;-70
2021/12/31 04:05:25;;;;;;;5.55;2.42;;;13.60;99.90;;;;;;5092277;28;20059;-71
2021/12/31 04:07:51;;;;;;;5.53;2.78;;;13.60;99.90;;;;;;5092748;28;20028;-70
2021/12/31 04:10:17;;;;;;;7.25;2.88;;;13.60;99.90;;;;;;5091643;28;20032;-71
2021/12/31 04:12:42;;;;;;;3.88;2.50;;;13.70;99.90;;;;;;5091287;28;20085;-72
2021/12/31 04:15:08;;;;;;;5.28;2.10;;;13.70;99.90;;;;;;5092110;28;20107;-70
2021/12/31 04:17:34;;;;;;;6.72;2.58;;;13.70;99.90;;;;;;5092508;28;20016;-72
2021/12/31 04:19:59;;;;;;;7.57;2.38;;;13.70;99.90;;;;;;5092423;28;20032;-72
2021/12/31 04:22:27;;;;;;;2.85;2.20;;;13.70;99.90;;;;;;5091544;28;20027;-72
2021/12/31 04:24:53;;;;;;;5.45;2.80;;;13.70;99.90;;;;;;5092479;28;20072;-72
2021/12/31 04:27:21;;;;;;;3.03;2.45;;;13.80;99.90;;;;;;5092350;28;20024;-72
2021/12/31 04:29:53;;;;;;;7.15;2.22;;;13.80;99.90;;;;;;5091890;28;20062;-72
2021/12/31 04:32:23;;;;;;;5.45;2.60;;;13.70;99.90;;;;;;5092311;28;20495;-72
2021/12/31 04:34:49;;;;;;;5.30;2.30;;;13.70;99.90;;;;;;5092363;28;20039;-72
2021/12/31 04:37:16;;;;;;;4.35;2.08;;;13.70;99.90;;;;;;5091285;28;20032;-72
2021/12/31 04:39:41;;;;;;;6.07;2.17;;;13.70;99.90;;;;;;5092026;28;20043;-72
2021/12/31 04:42:07;;;;;;;13.07;2.50;;;13.70;99.90;;;;;;5092572;28;20032;-71
2021/12/31 04:44:32;;;;;;;4.95;1.90;;;13.70;99.90;;;;;;5095904;28;20074;-72
2021/12/31 04:46:58;;;;;;;3.58;1.85;;;13.80;99.90;;;;;;5095907;28;20028;-72
2021/12/31 04:49:24;;;;;;;8.25;2.28;;;13.80;99.90;;;;;;5095760;28;20114;-72
2021/12/31 04:51:49;;;;;;;4.50;2.58;;;13.80;99.90;;;;;;5095449;28;20044;-72
2021/12/31 04:54:15;;;;;;;3.90;2.30;;;13.80;99.90;;;;;;5095675;28;20559;-72
2021/12/31 04:56:44;;;;;;;5.68;2.58;;;13.80;99.90;;;;;;5096768;28;20050;-72
2021/12/31 04:59:10;;;;;;;5.22;2.20;;;13.80;99.90;;;;;;5094688;28;20020;-72
2021/12/31 05:01:36;;;;;;;4.50;1.80;;;13.70;99.90;;;;;;5095974;28;20036;-72
2021/12/31 05:04:02;;;;;;;3.78;2.58;;;13.70;99.90;;;;;;5095827;28;20039;-72
2021/12/31 05:06:27;;;;;;;5.25;2.08;;;13.70;99.90;;;;;;5095409;28;20483;-72
2021/12/31 05:08:53;;;;;;;3.55;2.28;;;13.70;99.90;;;;;;5096044;28;20052;-72
2021/12/31 05:11:18;;;;;;;7.53;2.40;;;13.60;99.90;;;;;;5095419;28;20131;-72
2021/12/31 05:13:44;;;;;;;4.80;2.30;;;13.50;99.90;;;;;;5094973;28;20027;-72
2021/12/31 05:16:09;;;;;;;2.50;1.88;;;13.50;99.90;;;;;;5095535;28;20031;-72
2021/12/31 05:18:35;;;;;;;3.30;2.28;;;13.40;99.90;;;;;;5094804;28;20020;-72
2021/12/31 05:21:00;;;;;;;5.75;2.28;;;13.40;99.90;;;;;;5095427;28;20127;-72
2021/12/31 05:23:26;;;;;;;6.20;2.20;;;13.30;99.90;;;;;;5095382;28;20036;-72
2021/12/31 05:25:52;;;;;;;6.25;2.30;;;13.30;99.90;;;;;;5094871;28;20484;-72
2021/12/31 05:28:17;;;;;;;6.57;2.40;;;13.20;99.90;;;;;;5095283;28;20031;-72
2021/12/31 05:30:43;;;;;;;5.68;2.47;;;13.30;99.90;;;;;;5095360;28;20020;-72
2021/12/31 05:33:08;;;;;;;3.78;1.98;;;13.20;99.90;;;;;;5094386;28;20016;-72
2021/12/31 05:35:34;;;;;;;6.05;2.60;;;13.10;99.90;;;;;;5095396;28;20055;-72
2021/12/31 05:37:59;;;;;;;7.07;2.40;;;13.20;99.90;;;;;;5095335;28;20031;-71
2021/12/31 05:40:25;;;;;;;8.77;3.03;;;13.20;99.90;;;;;;5094473;28;20509;-72
2021/12/31 05:42:50;;;;;;;5.20;2.78;;;13.20;99.90;;;;;;5095282;28;20020;-72
2021/12/31 05:45:16;;;;;;;6.18;2.30;;;13.20;99.90;;;;;;5094826;28;20024;-72
2021/12/31 05:47:42;;;;;;;8.55;2.30;;;13.20;99.90;;;;;;5094498;28;20103;-72
2021/12/31 05:50:18;;;;;;;6.93;2.55;;;13.10;99.90;;;;;;5094607;28;20028;-72
2021/12/31 05:52:45;;;;;;;6.70;2.35;;;13.10;99.90;;;;;;5095097;28;20028;-72
2021/12/31 05:55:10;;;;;;;2.72;1.98;;;13.10;99.90;;;;;;5094177;28;20425;-71
2021/12/31 05:57:36;;;;;;;6.63;2.10;;;13.10;99.90;;;;;;5095216;28;20020;-72
2021/12/31 06:00:02;;;;;;;4.20;2.20;;;13.10;99.90;;;;;;5094511;28;20494;-72
2021/12/31 06:02:28;;;;;;;5.97;2.40;;;13.10;99.90;;;;;;5093931;28;20435;-72
2021/12/31 06:04:53;;;;;;;6.07;2.28;;;13.00;99.90;;;;;;5094502;28;20108;-72
2021/12/31 06:07:19;;;;;;;3.70;1.85;;;13.10;99.90;;;;;;5094649;28;20371;-72
2021/12/31 06:09:44;;;;;;;3.75;1.85;;;13.10;99.90;;;;;;5093930;28;20464;-72
2021/12/31 06:12:10;;;;;;;4.57;1.92;;;13.00;99.90;;;;;;5094448;28;20039;-72
2021/12/31 06:14:35;;;;;;;3.80;2.40;;;13.10;99.90;;;;;;5094768;27;20040;-72
2021/12/31 06:17:06;;;;;;;4.75;2.15;;;13.10;99.90;;;;;;5093776;28;20039;-72
2021/12/31 06:19:32;;;;;;;3.80;1.65;;;13.00;99.90;;;;;;5093697;28;20372;-72
2021/12/31 06:21:58;;;;;;;5.25;1.95;;;13.10;99.90;;;;;;5093728;28;20124;-72
2021/12/31 06:24:24;;;;;;;2.58;1.95;;;13.10;99.90;;;;;;5094272;28;20178;-72
2021/12/31 06:26:50;;;;;;;2.65;2.25;;;13.00;99.90;;;;;;5094390;28;20585;-72
2021/12/31 06:29:15;;;;;;;5.47;2.05;;;13.00;99.90;;;;;;5092978;28;20356;-72
2021/12/31 06:31:41;;;;;;;5.32;2.22;;;13.00;99.90;;;;;;5094323;28;20081;-72
2021/12/31 06:34:06;;;;;;;5.30;2.70;;;12.90;99.90;;;;;;5094240;28;20031;-71
2021/12/31 06:36:32;;;;;;;5.03;2.60;;;12.90;99.90;;;;;;5093883;28;20073;-72
2021/12/31 06:39:01;;;;;;;8.98;2.10;;;12.80;99.90;;;;;;5094338;28;20073;-72
2021/12/31 06:41:26;;;;;;;5.43;2.38;;;12.70;99.90;;;;;;5094045;28;20115;-72
2021/12/31 06:43:52;;;;;;;5.28;2.33;;;12.70;99.90;;;;;;5093346;28;20518;-72
2021/12/31 06:46:19;;;;;;;3.22;2.38;;;12.70;99.90;;;;;;5093787;28;20387;-72
2021/12/31 06:48:44;;;;;;;4.32;2.20;;;12.70;99.90;;;;;;5094644;28;20027;-72
2021/12/31 06:51:10;;;;;;;6.43;2.10;;;12.70;99.90;;;;;;5093156;28;20024;-72
2021/12/31 06:53:36;;;;;;;2.85;2.15;;;12.70;99.90;;;;;;5093996;28;20024;-72
2021/12/31 06:56:01;;;;;;;4.43;2.03;;;12.70;99.90;;;;;;5093915;28;20141;-72
2021/12/31 06:58:27;;;;;;;4.57;2.17;;;12.70;99.90;;;;;;5092921;28;20095;-71
2021/12/31 07:00:53;;;;;;;7.75;1.95;;;12.70;99.90;;;;;;5093501;28;20051;-72
2021/12/31 07:03:18;;;;;;;4.43;2.13;;;12.70;99.90;;;;;;5083276;28;20029;-72
2021/12/31 07:05:44;;;;;;;1.70;1.60;;;12.70;99.90;;;;;;5070570;28;20028;-72
2021/12/31 07:08:10;;;;;;;3.60;2.28;;;12.70;99.90;;;;;;5089098;28;20016;-72
2021/12/31 07:10:36;;;;;;;3.70;2.20;;;12.70;99.90;;;;;;5073008;28;20039;-71
2021/12/31 07:13:11;;;;;;;4.63;2.00;;;12.70;99.90;;;;;;5071486;28;20036;-72
2021/12/31 07:15:48;;;;;;;4.72;1.90;;;12.70;99.90;;;;;;5072216;28;20021;-72
2021/12/31 07:18:14;;;;;;;3.97;1.83;;;12.80;99.90;;;;;;5072452;28;20016;-73
2021/12/31 07:20:40;;;;;;;5.53;2.10;;;12.80;99.90;;;;;;5074748;28;20038;-72
2021/12/31 07:23:08;;;;;;;4.50;2.13;;;12.80;99.90;;;;;;5071882;28;20024;-73
2021/12/31 07:25:34;;;;;;;3.85;2.22;;;12.90;99.90;;;;;;5070961;28;20537;-72
2021/12/31 07:28:00;;;;;;;4.35;2.40;;;12.80;99.90;;;;;;5071638;28;20081;-72
2021/12/31 07:30:26;;;;;;;2.33;1.70;;;12.80;99.90;;;;;;5074477;28;20092;-72
2021/12/31 07:32:51;;;;;;;2.80;2.20;;;12.90;99.90;;;;;;5071493;28;20100;-72
2021/12/31 07:35:17;;;;;;;6.53;2.63;;;12.90;99.90;;;;;;5074673;28;20448;-72
2021/12/31 07:37:42;;;;;;;4.82;2.45;;;12.90;99.90;;;;;;5071495;28;20021;-72
2021/12/31 07:40:11;;;;;;;3.47;2.28;;;12.90;99.90;;;;;;5070313;28;20434;-72
2021/12/31 07:42:37;;;;;;;4.13;2.60;;;12.90;99.90;;;;;;5077455;28;20025;-72
2021/12/31 07:45:04;;;;;;;3.05;2.28;;;12.90;99.90;;;;;;5071904;28;20028;-72
2021/12/31 07:47:29;;;;;;;2.65;2.28;;;12.90;99.90;;;;;;5071833;28;20025;-72
2021/12/31 07:49:55;;;;;;;4.70;2.28;;;12.80;99.90;;;;;;5075074;28;20012;-72
2021/12/31 07:52:20;;;;;;;4.82;2.10;;;12.80;99.90;;;;;;5071978;28;20028;-72
2021/12/31 07:54:46;;;;;;;3.88;2.25;;;12.80;99.90;;;;;;5077030;28;20316;-73
2021/12/31 07:57:12;;;;;;;3.40;2.47;;;12.90;99.90;;;;;;5077191;28;21271;-72
2021/12/31 07:59:37;;;;;;;3.10;1.98;;;12.90;99.90;;;;;;5082491;28;20047;-72
2021/12/31 08:02:03;;;;;;;5.72;2.50;;;12.80;99.90;;;;;;5090313;28;20039;-72
2021/12/31 08:04:28;;;;;;;2.25;2.00;;;12.90;99.90;;;;;;5091678;28;20012;-72
2021/12/31 08:06:54;;;;;;;2.30;2.10;;;12.90;99.90;;;;;;5089011;28;20482;-72
2021/12/31 08:09:20;;;;;;;4.13;2.47;;;12.80;99.90;;;;;;5091027;28;20012;-73
2021/12/31 08:11:45;;;;;;;4.05;2.22;;;12.80;99.90;;;;;;5091844;28;20027;-73
2021/12/31 08:14:11;;;;;;;7.43;2.35;;;12.90;99.90;;;;;;5089322;28;20382;-73
2021/12/31 08:16:36;;;;;;;2.60;2.10;;;12.90;99.90;;;;;;5090545;28;20023;-73
2021/12/31 08:19:02;;;;;;;6.78;2.83;;;12.90;99.90;;;;;;5078748;28;20157;-73
2021/12/31 08:21:28;;;;;;;6.60;2.08;;;12.80;99.90;;;;;;5075158;28;20028;-73
2021/12/31 08:23:53;;;;;;;3.35;2.17;;;12.90;99.90;;;;;;5075784;28;20352;-73
2021/12/31 08:26:19;;;;;;;4.35;2.40;;;12.90;99.90;;;;;;5075274;28;20024;-73
2021/12/31 08:28:44;;;;;;;3.40;2.47;;;12.90;99.90;;;;;;5074935;28;20021;-73
2021/12/31 08:31:10;;;;;;;4.25;2.60;;;12.90;99.90;;;;;;5077163;28;20016;-73
2021/12/31 08:33:35;;;;;;;3.38;2.20;;;12.90;99.90;;;;;;5095872;28;20367;-73
2021/12/31 08:36:01;;;;;;;3.25;2.25;;;12.90;99.90;;;;;;5080961;28;20031;-73
2021/12/31 08:38:27;;;;;;;4.63;1.85;;;12.90;99.90;;;;;;5093519;28;20027;-73
2021/12/31 08:40:54;;;;;;;3.15;2.47;;;13.00;99.90;;;;;;5096303;28;20036;-73
2021/12/31 08:43:20;;;;;;;3.85;2.30;;;13.00;99.90;;;;;;5095210;28;20028;-73
2021/12/31 08:45:45;;;;;;;5.22;1.95;;;12.90;99.90;;;;;;5096357;28;20472;-73
2021/12/31 08:48:11;;;;;;;4.60;2.28;;;13.00;99.90;;;;;;5095765;28;20039;-73
2021/12/31 08:50:37;;;;;;;6.07;2.40;;;12.90;99.90;;;;;;5095472;28;20020;-73
2021/12/31 08:53:03;;;;;;;5.75;2.15;;;12.90;99.90;;;;;;5084627;28;20024;-73
2021/12/31 08:55:29;;;;;;;4.05;2.28;;;13.00;99.90;;;;;;5083124;28;20042;-72
2021/12/31 08:57:55;;;;;;;3.85;2.15;;;13.00;99.90;;;;;;5094567;28;20467;-72
2021/12/31 09:00:21;;;;;;;3.15;2.42;;;13.00;99.90;;;;;;5094712;28;20052;-73
2021/12/31 09:02:49;;;;;;;5.10;2.28;;;13.00;99.90;;;;;;5094117;28;20073;-72
2021/12/31 09:05:16;;;;;;;2.88;2.42;;;12.90;99.90;;;;;;5078073;28;20555;-73
2021/12/31 09:07:41;;;;;;;3.47;2.47;;;13.00;99.90;;;;;;5075691;28;20048;-73
2021/12/31 09:10:08;;;;;;;6.35;2.63;;;12.90;99.90;;;;;;5075063;28;20059;-73
2021/12/31 09:12:34;;;;;;;5.53;2.40;;;13.00;99.90;;;;;;5074679;28;20452;-72
2021/12/31 09:15:00;;;;;;;3.53;2.58;;;13.00;99.90;;;;;;5075527;28;20034;-74
2021/12/31 09:17:25;;;;;;;7.72;2.47;;;13.00;99.90;;;;;;5075222;28;20115;-74
2021/12/31 09:19:51;;;;;;;7.38;2.78;;;13.00;99.90;;;;;;5074971;28;20028;-73
2021/12/31 09:22:17;;;;;;;3.30;2.70;;;13.10;99.90;;;;;;5075946;28;20082;-76
2021/12/31 09:24:43;;;;;;;5.57;2.60;;;13.10;99.90;;;;;;5074795;28;20028;-75
2021/12/31 09:27:08;;;;;;;5.82;3.33;;;13.00;99.90;;;;;;5075315;28;20107;-73
2021/12/31 09:29:34;;;;;;;4.53;3.10;;;13.00;99.90;;;;;;5074441;28;20108;-71
2021/12/31 09:32:00;;;;;;;5.43;2.50;;;13.00;99.90;;;;;;5074479;28;20037;-73
2021/12/31 09:34:26;;;;;;;6.07;2.90;;;13.00;99.90;;;;;;5074691;28;20456;-74
2021/12/31 09:36:51;;;;;;;5.60;2.75;;;13.00;99.90;;;;;;5075842;28;20388;-73
2021/12/31 09:39:17;;;;;;;3.63;2.28;;;13.00;99.90;;;;;;5088340;28;20024;-74
2021/12/31 09:41:44;;;;;;;4.75;3.10;;;13.10;99.90;;;;;;5095088;28;20040;-74
2021/12/31 09:44:14;;;;;;;5.10;2.50;;;13.10;99.90;;;;;;5091749;28;20537;-75
2021/12/31 09:46:39;;;;;;;2.78;2.28;;;13.10;99.90;;;;;;5091720;28;20469;-74
2021/12/31 09:49:05;;;;;;;10.02;3.40;;;13.00;99.90;;;;;;5077925;28;20039;-74
2021/12/31 09:51:31;;;;;;;4.03;2.42;;;13.80;99.90;;;;;;5076617;28;20399;-73
2021/12/31 09:53:59;;;;;;;4.03;2.60;;;13.00;99.90;;;;;;5091613;28;20483;-73
2021/12/31 09:56:26;;;;;;;8.40;3.08;;;13.10;99.90;;;;;;5090973;28;20096;-73
2021/12/31 09:58:52;;;;;;;3.92;2.47;;;13.10;99.90;;;;;;5074017;28;20030;-73
2021/12/31 10:01:17;;;;;;;4.32;2.75;;;13.10;99.90;;;;;;5072901;28;20052;-73
2021/12/31 10:03:54;;;;;;;4.63;2.75;;;13.10;99.90;;;;;;5074849;28;20534;-74
2021/12/31 10:06:19;;;;;;;8.55;2.90;;;13.20;99.90;;;;;;5074318;28;20031;-73
2021/12/31 10:08:47;;;;;;;4.72;3.17;;;13.20;99.90;;;;;;5073743;28;20017;-73
2021/12/31 10:11:20;;;;;;;7.95;3.33;;;13.10;99.90;;;;;;5071814;28;20070;-71
2021/12/31 10:13:55;;;;;;;7.53;3.72;;;13.20;99.90;;;;;;5085840;28;20077;-73
2021/12/31 10:16:26;;;;;;;5.78;3.22;;;13.20;99.90;;;;;;5088935;28;20063;-74
2021/12/31 10:19:11;;;;;;;6.45;3.40;;;13.20;99.90;;;;;;5090893;28;20074;-73
2021/12/31 10:21:41;;;;;;;6.60;3.30;;;13.10;99.90;;;;;;5084801;28;20032;-73
2021/12/31 10:24:36;;;;;;;5.22;3.28;;;13.10;99.90;;;;;;5092673;28;20099;-74
2021/12/31 10:27:12;;;;;;;6.90;3.60;;;13.20;99.90;;;;;;5090230;28;20024;-73
2021/12/31 10:29:54;;;;;;;5.72;3.42;;;13.10;99.90;;;;;;5091508;28;20028;-74
2021/12/31 10:32:25;;;;;;;5.45;3.22;;;13.20;99.90;;;;;;5092594;28;20099;-73
2021/12/31 10:34:51;;;;;;;6.63;2.90;;;13.20;99.90;;;;;;5092810;28;20036;-75
2021/12/31 10:37:26;;;;;;;5.05;3.55;;;13.20;99.90;;;;;;5091267;28;20052;-74
2021/12/31 10:40:10;;;;;;;3.72;3.08;;;13.30;99.90;;;;;;5091229;28;20056;-74
2021/12/31 10:42:37;;;;;;;6.70;3.40;;;13.20;99.90;;;;;;5090635;28;20024;-75
2021/12/31 10:45:04;;;;;;;5.05;3.60;;;13.20;99.90;;;;;;5091435;28;20029;-75
2021/12/31 10:47:33;;;;;;;5.35;3.40;;;13.30;99.90;;;;;;5091824;28;20035;-75
2021/12/31 10:50:13;;;;;;;4.00;2.95;;;13.30;99.90;;;;;;5090773;28;20016;-75
2021/12/31 10:52:43;;;;;;;7.50;3.45;;;13.30;99.90;;;;;;5090261;28;20048;-75
2021/12/31 10:55:20;;;;;;;6.57;3.20;;;13.30;99.90;;;;;;5089554;28;20099;-75
2021/12/31 10:57:48;;;;;;;5.53;2.97;;;13.40;99.90;;;;;;5090298;28;20020;-74
2021/12/31 11:00:18;;;;;;;4.78;3.13;;;13.40;99.90;;;;;;5088683;28;20500;-74
2021/12/31 11:02:45;;;;;;;6.43;3.30;;;13.40;99.90;;;;;;5091648;28;20043;-75
2021/12/31 11:05:12;;;;;;;5.88;3.15;;;13.50;99.90;;;;;;5090252;28;20016;-74
2021/12/31 11:07:39;;;;;;;5.40;3.28;;;13.50;99.90;;;;;;5091256;28;20110;-74
2021/12/31 11:10:06;;;;;;;7.90;3.03;;;13.50;99.90;;;;;;5090855;28;20024;-75
2021/12/31 11:12:34;;;;;;;9.55;3.60;;;13.50;99.90;;;;;;5086089;28;20050;-74
2021/12/31 11:14:59;;;;;;;6.28;3.40;;;13.60;99.90;;;;;;5090999;28;20028;-74
2021/12/31 11:17:25;;;;;;;5.75;3.40;;;13.70;99.90;;;;;;5090060;28;20061;-74
2021/12/31 11:19:51;;;;;;;11.05;4.30;;;13.70;99.90;;;;;;5086449;28;20632;-73
2021/12/31 11:22:22;;;;;;;6.03;3.45;;;13.70;99.90;;;;;;5090512;28;20067;-74
2021/12/31 11:24:47;;;;;;;5.47;3.17;;;13.80;99.90;;;;;;5089529;28;20377;-74
2021/12/31 11:27:31;;;;;;;8.10;3.80;;;13.80;99.90;;;;;;5089414;28;20043;-73
2021/12/31 11:29:58;;;;;;;6.85;3.17;;;13.80;99.90;;;;;;5091237;28;20024;-73
2021/12/31 11:32:42;;;;;;;10.38;5.57;;;13.70;99.90;;;;;;5087090;28;20035;-73
2021/12/31 11:35:26;;;;;;;7.45;4.30;;;13.70;99.90;;;;;;5090850;28;20032;-73
2021/12/31 11:37:52;;;;;;;7.20;4.10;;;13.70;99.90;;;;;;5091315;28;20649;-74
2021/12/31 11:41:08;;;;;;;6.28;3.55;;;13.60;99.90;;;;;;5089220;28;20089;-73
2021/12/31 11:43:43;;;;;;;10.15;4.10;;;13.50;99.90;;;;;;5048393;28;20028;-74
2021/12/31 11:46:09;;;;;;;6.38;3.20;;;13.50;99.90;;;;;;5084901;28;20047;-74
2021/12/31 11:48:43;;;;;;;7.40;3.35;;;13.50;99.90;;;;;;5078853;28;20024;-74
2021/12/31 11:51:10;;;;;;;7.10;3.45;;;13.50;99.90;;;;;;5090085;28;20019;-74
2021/12/31 11:53:57;;;;;;;9.77;3.72;;;13.50;99.90;;;;;;5090615;28;20032;-73
2021/12/31 11:56:45;;;;;;;3.72;2.47;;;13.60;99.90;;;;;;5090250;28;20024;-74
2021/12/31 11:59:11;;;;;;;4.22;3.05;;;13.60;99.90;;;;;;5089084;28;20424;-74
2021/12/31 12:01:48;;;;;;;12.95;3.72;;;13.70;99.90;;;;;;5086328;28;20135;-74
2021/12/31 12:04:29;;;;;;;6.15;3.90;;;13.70;99.90;;;;;;5090114;28;20031;-74
2021/12/31 12:07:24;;;;;;;4.75;4.03;;;13.80;99.90;;;;;;5080673;28;20024;-74
2021/12/31 12:09:49;;;;;;;5.80;3.90;;;13.90;99.90;;;;;;5089513;28;20024;-74
2021/12/31 12:12:28;;;;;;;8.57;4.20;;;13.90;99.90;;;;;;5091268;28;20769;-73
2021/12/31 12:14:58;;;;;;;10.05;3.85;;;14.00;99.90;;;;;;5086103;28;20020;-73
2021/12/31 12:17:29;;;;;;;7.05;3.90;;;14.00;99.90;;;;;;5090702;28;20028;-75
2021/12/31 12:20:01;;;;;;;10.05;4.13;;;13.90;99.90;;;;;;5089800;28;20031;-74
2021/12/31 12:22:40;;;;;;;4.22;3.42;;;13.90;99.90;;;;;;5087942;28;20039;-72
2021/12/31 12:25:31;;;;;;;8.52;3.67;;;13.80;99.90;;;;;;5089086;28;20119;-75
2021/12/31 12:28:09;;;;;;;4.45;3.60;;;13.70;99.90;;;;;;5084542;28;20088;-73
2021/12/31 12:30:48;;;;;;;5.43;4.10;;;13.70;99.90;;;;;;5088815;28;20025;-73
2021/12/31 12:33:23;;;;;;;7.80;3.95;;;13.70;99.90;;;;;;5090502;28;20020;-74
2021/12/31 12:35:51;;;;;;;15.32;7.05;;;13.70;99.90;;;;;;5084600;28;20510;-74
2021/12/31 12:38:20;;;;;;;14.85;8.13;;;13.70;99.90;;;;;;5081424;28;20036;-74
2021/12/31 12:40:49;;;;;;;9.32;6.00;;;13.80;99.90;;;;;;5085727;28;20040;-74
2021/12/31 12:43:22;;;;;;;5.63;4.35;;;13.80;99.90;;;;;;5089817;28;20028;-73
2021/12/31 12:45:51;;;;;;;8.02;5.00;;;13.80;99.90;;;;;;5086861;28;20463;-74
2021/12/31 12:48:27;;;;;;;9.45;6.00;;;13.80;99.90;;;;;;5083303;28;20024;-74
2021/12/31 12:50:53;;;;;;;11.32;5.18;;;13.90;99.90;;;;;;5087732;28;20040;-75